sensor_id;sensor_type;location;lat;lon;timestamp;P1;durP1;ratioP1;P2;durP2;ratioP2
48205;SDS011;33995;48.202;16.260;2022-12-29T00:01:20;21.53;;;17.10;;
48205;SDS011;33995;48.202;16.260;2022-12-29T00:03:48;25.17;;;17.60;;
48205;SDS011;33995;48.202;16.260;2022-12-29T00:06:20;20.93;;;16.90;;
48205;SDS011;33995;48.202;16.260;2022-12-29T00:08:49;23.17;;;16.77;;
48205;SDS011;33995;48.202;16.260;2022-12-29T00:11:24;19.37;;;16.10;;
48205;SDS011;33995;48.202;16.260;2022-12-29T00:13:56;23.37;;;17.97;;
48205;SDS011;33995;48.202;16.260;2022-12-29T00:16:50;21.50;;;16.80;;
48205;SDS011;33995;48.202;16.260;2022-12-29T00:19:20;24.93;;;18.23;;
48205;SDS011;33995;48.202;16.260;2022-12-29T00:22:11;20.23;;;17.10;;
48205;SDS011;33995;48.202;16.260;2022-12-29T00:25:00;21.27;;;16.97;;
48205;SDS011;33995;48.202;16.260;2022-12-29T00:27:47;20.73;;;16.37;;
48205;SDS011;33995;48.202;16.260;2022-12-29T00:30:35;21.00;;;16.53;;
48205;SDS011;33995;48.202;16.260;2022-12-29T00:33:31;20.23;;;16.30;;
48205;SDS011;33995;48.202;16.260;2022-12-29T00:39:07;19.17;;;15.57;;
48205;SDS011;33995;48.202;16.260;2022-12-29T00:42:06;21.03;;;16.00;;
48205;SDS011;33995;48.202;16.260;2022-12-29T00:45:20;19.67;;;16.27;;
48205;SDS011;33995;48.202;16.260;2022-12-29T00:47:50;21.13;;;17.33;;
48205;SDS011;33995;48.202;16.260;2022-12-29T00:50:25;24.80;;;17.20;;
48205;SDS011;33995;48.202;16.260;2022-12-29T00:52:56;20.73;;;15.50;;
48205;SDS011;33995;48.202;16.260;2022-12-29T00:55:25;18.57;;;15.20;;
48205;SDS011;33995;48.202;16.260;2022-12-29T00:57:53;18.70;;;14.20;;
48205;SDS011;33995;48.202;16.260;2022-12-29T01:00:22;19.00;;;14.40;;
48205;SDS011;33995;48.202;16.260;2022-12-29T01:02:58;19.97;;;14.57;;
48205;SDS011;33995;48.202;16.260;2022-12-29T01:05:30;18.50;;;14.17;;
48205;SDS011;33995;48.202;16.260;2022-12-29T01:08:03;17.73;;;13.77;;
48205;SDS011;33995;48.202;16.260;2022-12-29T01:10:30;17.83;;;13.70;;
48205;SDS011;33995;48.202;16.260;2022-12-29T01:13:00;16.83;;;13.30;;
48205;SDS011;33995;48.202;16.260;2022-12-29T01:15:48;15.97;;;12.80;;
48205;SDS011;33995;48.202;16.260;2022-12-29T01:18:20;16.13;;;13.50;;
48205;SDS011;33995;48.202;16.260;2022-12-29T01:21:00;17.57;;;13.73;;
48205;SDS011;33995;48.202;16.260;2022-12-29T01:23:50;18.40;;;14.37;;
48205;SDS011;33995;48.202;16.260;2022-12-29T01:26:19;19.47;;;14.50;;
48205;SDS011;33995;48.202;16.260;2022-12-29T01:29:01;23.67;;;15.07;;
48205;SDS011;33995;48.202;16.260;2022-12-29T01:31:29;19.07;;;15.10;;
48205;SDS011;33995;48.202;16.260;2022-12-29T01:34:01;18.40;;;15.47;;
48205;SDS011;33995;48.202;16.260;2022-12-29T01:36:31;19.17;;;15.13;;
48205;SDS011;33995;48.202;16.260;2022-12-29T01:39:02;17.83;;;14.60;;
48205;SDS011;33995;48.202;16.260;2022-12-29T01:41:30;18.47;;;14.57;;
48205;SDS011;33995;48.202;16.260;2022-12-29T01:44:01;16.20;;;13.37;;
48205;SDS011;33995;48.202;16.260;2022-12-29T01:46:40;17.07;;;14.07;;
48205;SDS011;33995;48.202;16.260;2022-12-29T01:49:26;15.23;;;13.13;;
48205;SDS011;33995;48.202;16.260;2022-12-29T01:51:57;16.93;;;13.67;;
48205;SDS011;33995;48.202;16.260;2022-12-29T01:54:43;18.90;;;14.37;;
48205;SDS011;33995;48.202;16.260;2022-12-29T01:57:25;16.80;;;13.73;;
48205;SDS011;33995;48.202;16.260;2022-12-29T02:00:04;17.57;;;14.97;;
48205;SDS011;33995;48.202;16.260;2022-12-29T02:02:50;19.00;;;14.27;;
48205;SDS011;33995;48.202;16.260;2022-12-29T02:05:42;17.37;;;14.87;;
48205;SDS011;33995;48.202;16.260;2022-12-29T02:08:21;19.83;;;15.30;;
48205;SDS011;33995;48.202;16.260;2022-12-29T02:10:53;18.73;;;14.73;;
48205;SDS011;33995;48.202;16.260;2022-12-29T02:13:37;17.90;;;15.07;;
48205;SDS011;33995;48.202;16.260;2022-12-29T02:31:23;17.37;;;14.33;;
48205;SDS011;33995;48.202;16.260;2022-12-29T02:34:32;16.77;;;13.87;;
48205;SDS011;33995;48.202;16.260;2022-12-29T02:37:19;17.90;;;14.27;;
48205;SDS011;33995;48.202;16.260;2022-12-29T02:43:03;15.67;;;12.60;;
48205;SDS011;33995;48.202;16.260;2022-12-29T02:49:27;16.00;;;13.10;;
48205;SDS011;33995;48.202;16.260;2022-12-29T02:54:32;18.63;;;13.90;;
48205;SDS011;33995;48.202;16.260;2022-12-29T03:11:32;19.67;;;14.13;;
48205;SDS011;33995;48.202;16.260;2022-12-29T03:14:31;18.13;;;14.33;;
48205;SDS011;33995;48.202;16.260;2022-12-29T03:17:40;16.77;;;14.00;;
48205;SDS011;33995;48.202;16.260;2022-12-29T03:20:23;16.47;;;13.87;;
48205;SDS011;33995;48.202;16.260;2022-12-29T03:22:58;16.07;;;13.83;;
48205;SDS011;33995;48.202;16.260;2022-12-29T03:25:32;17.20;;;14.37;;
48205;SDS011;33995;48.202;16.260;2022-12-29T03:28:17;18.00;;;13.63;;
48205;SDS011;33995;48.202;16.260;2022-12-29T03:30:49;18.07;;;13.37;;
48205;SDS011;33995;48.202;16.260;2022-12-29T03:33:21;16.07;;;13.23;;
48205;SDS011;33995;48.202;16.260;2022-12-29T03:35:53;14.00;;;12.30;;
48205;SDS011;33995;48.202;16.260;2022-12-29T03:38:33;15.13;;;12.80;;
48205;SDS011;33995;48.202;16.260;2022-12-29T03:41:13;18.27;;;12.43;;
48205;SDS011;33995;48.202;16.260;2022-12-29T03:43:51;16.37;;;12.90;;
48205;SDS011;33995;48.202;16.260;2022-12-29T03:46:19;15.77;;;13.00;;
48205;SDS011;33995;48.202;16.260;2022-12-29T03:48:46;16.43;;;12.60;;
48205;SDS011;33995;48.202;16.260;2022-12-29T03:51:14;15.77;;;12.90;;
48205;SDS011;33995;48.202;16.260;2022-12-29T03:53:44;17.00;;;13.33;;
48205;SDS011;33995;48.202;16.260;2022-12-29T03:56:15;15.30;;;12.70;;
48205;SDS011;33995;48.202;16.260;2022-12-29T03:58:46;15.67;;;12.93;;
48205;SDS011;33995;48.202;16.260;2022-12-29T04:01:49;17.03;;;13.50;;
48205;SDS011;33995;48.202;16.260;2022-12-29T04:04:22;16.17;;;13.47;;
48205;SDS011;33995;48.202;16.260;2022-12-29T04:06:55;16.47;;;13.17;;
48205;SDS011;33995;48.202;16.260;2022-12-29T04:09:22;16.27;;;13.43;;
48205;SDS011;33995;48.202;16.260;2022-12-29T04:11:54;15.97;;;13.23;;
48205;SDS011;33995;48.202;16.260;2022-12-29T04:14:22;15.10;;;13.00;;
48205;SDS011;33995;48.202;16.260;2022-12-29T04:16:50;16.20;;;12.80;;
48205;SDS011;33995;48.202;16.260;2022-12-29T04:19:22;17.47;;;13.13;;
48205;SDS011;33995;48.202;16.260;2022-12-29T04:21:51;16.27;;;12.67;;
48205;SDS011;33995;48.202;16.260;2022-12-29T04:24:23;16.07;;;12.93;;
48205;SDS011;33995;48.202;16.260;2022-12-29T04:26:50;15.20;;;13.13;;
48205;SDS011;33995;48.202;16.260;2022-12-29T04:29:24;15.23;;;12.87;;
48205;SDS011;33995;48.202;16.260;2022-12-29T04:32:12;16.77;;;13.10;;
48205;SDS011;33995;48.202;16.260;2022-12-29T04:34:48;17.90;;;14.17;;
48205;SDS011;33995;48.202;16.260;2022-12-29T04:37:19;18.07;;;13.73;;
48205;SDS011;33995;48.202;16.260;2022-12-29T04:39:47;17.00;;;13.27;;
48205;SDS011;33995;48.202;16.260;2022-12-29T04:42:18;17.43;;;13.17;;
48205;SDS011;33995;48.202;16.260;2022-12-29T04:44:51;15.07;;;12.93;;
48205;SDS011;33995;48.202;16.260;2022-12-29T04:47:37;16.80;;;13.17;;
48205;SDS011;33995;48.202;16.260;2022-12-29T04:50:37;17.97;;;13.53;;
48205;SDS011;33995;48.202;16.260;2022-12-29T04:53:22;18.83;;;13.13;;
48205;SDS011;33995;48.202;16.260;2022-12-29T04:55:53;17.97;;;13.70;;
48205;SDS011;33995;48.202;16.260;2022-12-29T04:58:23;17.10;;;12.60;;
48205;SDS011;33995;48.202;16.260;2022-12-29T05:00:51;15.03;;;12.23;;
48205;SDS011;33995;48.202;16.260;2022-12-29T05:03:23;17.87;;;13.00;;
48205;SDS011;33995;48.202;16.260;2022-12-29T05:06:03;15.20;;;12.33;;
48205;SDS011;33995;48.202;16.260;2022-12-29T05:08:34;15.20;;;12.90;;
48205;SDS011;33995;48.202;16.260;2022-12-29T05:11:05;16.27;;;12.73;;
48205;SDS011;33995;48.202;16.260;2022-12-29T05:13:37;15.40;;;12.73;;
48205;SDS011;33995;48.202;16.260;2022-12-29T05:16:05;15.70;;;12.90;;
48205;SDS011;33995;48.202;16.260;2022-12-29T05:18:37;15.90;;;12.80;;
48205;SDS011;33995;48.202;16.260;2022-12-29T05:21:05;17.63;;;13.33;;
48205;SDS011;33995;48.202;16.260;2022-12-29T05:23:38;15.53;;;12.97;;
48205;SDS011;33995;48.202;16.260;2022-12-29T05:26:08;16.57;;;12.57;;
48205;SDS011;33995;48.202;16.260;2022-12-29T05:28:47;17.07;;;12.73;;
48205;SDS011;33995;48.202;16.260;2022-12-29T05:31:29;14.60;;;12.63;;
48205;SDS011;33995;48.202;16.260;2022-12-29T05:33:56;16.50;;;12.67;;
48205;SDS011;33995;48.202;16.260;2022-12-29T05:36:26;17.33;;;12.43;;
48205;SDS011;33995;48.202;16.260;2022-12-29T05:39:09;18.07;;;13.03;;
48205;SDS011;33995;48.202;16.260;2022-12-29T05:41:43;16.63;;;12.73;;
48205;SDS011;33995;48.202;16.260;2022-12-29T05:44:28;17.47;;;13.43;;
48205;SDS011;33995;48.202;16.260;2022-12-29T05:47:15;17.43;;;13.20;;
48205;SDS011;33995;48.202;16.260;2022-12-29T05:50:05;16.43;;;12.77;;
48205;SDS011;33995;48.202;16.260;2022-12-29T05:52:55;17.47;;;12.90;;
48205;SDS011;33995;48.202;16.260;2022-12-29T05:55:24;14.70;;;12.67;;
48205;SDS011;33995;48.202;16.260;2022-12-29T05:57:54;14.53;;;12.90;;
48205;SDS011;33995;48.202;16.260;2022-12-29T06:00:25;17.57;;;13.17;;
48205;SDS011;33995;48.202;16.260;2022-12-29T06:02:57;20.07;;;13.43;;
48205;SDS011;33995;48.202;16.260;2022-12-29T06:05:27;15.80;;;12.90;;
48205;SDS011;33995;48.202;16.260;2022-12-29T06:07:57;15.77;;;12.63;;
48205;SDS011;33995;48.202;16.260;2022-12-29T06:10:25;16.43;;;13.40;;
48205;SDS011;33995;48.202;16.260;2022-12-29T06:12:57;14.73;;;12.63;;
48205;SDS011;33995;48.202;16.260;2022-12-29T06:15:26;14.40;;;12.47;;
48205;SDS011;33995;48.202;16.260;2022-12-29T06:17:56;15.07;;;13.03;;
48205;SDS011;33995;48.202;16.260;2022-12-29T06:20:24;17.50;;;13.83;;
48205;SDS011;33995;48.202;16.260;2022-12-29T06:22:52;16.63;;;14.23;;
48205;SDS011;33995;48.202;16.260;2022-12-29T06:25:23;18.50;;;14.60;;
48205;SDS011;33995;48.202;16.260;2022-12-29T06:27:51;17.70;;;14.53;;
48205;SDS011;33995;48.202;16.260;2022-12-29T06:30:23;19.97;;;14.97;;
48205;SDS011;33995;48.202;16.260;2022-12-29T06:32:54;18.53;;;14.97;;
48205;SDS011;33995;48.202;16.260;2022-12-29T06:35:24;20.00;;;15.87;;
48205;SDS011;33995;48.202;16.260;2022-12-29T06:37:52;20.87;;;15.93;;
48205;SDS011;33995;48.202;16.260;2022-12-29T06:40:21;20.57;;;15.63;;
48205;SDS011;33995;48.202;16.260;2022-12-29T06:43:25;21.70;;;15.00;;
48205;SDS011;33995;48.202;16.260;2022-12-29T06:46:04;18.17;;;16.10;;
48205;SDS011;33995;48.202;16.260;2022-12-29T06:48:32;20.20;;;16.83;;
48205;SDS011;33995;48.202;16.260;2022-12-29T06:51:00;20.03;;;16.10;;
48205;SDS011;33995;48.202;16.260;2022-12-29T06:53:30;22.00;;;17.03;;
48205;SDS011;33995;48.202;16.260;2022-12-29T06:56:06;21.57;;;17.40;;
48205;SDS011;33995;48.202;16.260;2022-12-29T06:58:34;20.80;;;17.47;;
48205;SDS011;33995;48.202;16.260;2022-12-29T07:01:02;20.73;;;17.30;;
48205;SDS011;33995;48.202;16.260;2022-12-29T07:03:32;22.90;;;18.40;;
48205;SDS011;33995;48.202;16.260;2022-12-29T07:06:01;23.87;;;17.73;;
48205;SDS011;33995;48.202;16.260;2022-12-29T07:08:28;21.13;;;18.17;;
48205;SDS011;33995;48.202;16.260;2022-12-29T07:10:57;21.23;;;17.80;;
48205;SDS011;33995;48.202;16.260;2022-12-29T07:13:25;25.57;;;18.87;;
48205;SDS011;33995;48.202;16.260;2022-12-29T07:15:55;25.37;;;19.77;;
48205;SDS011;33995;48.202;16.260;2022-12-29T07:18:26;24.83;;;19.23;;
48205;SDS011;33995;48.202;16.260;2022-12-29T07:20:54;24.50;;;18.50;;
48205;SDS011;33995;48.202;16.260;2022-12-29T07:23:25;21.03;;;18.27;;
48205;SDS011;33995;48.202;16.260;2022-12-29T07:26:04;20.53;;;17.07;;
48205;SDS011;33995;48.202;16.260;2022-12-29T07:28:36;20.93;;;16.37;;
48205;SDS011;33995;48.202;16.260;2022-12-29T07:31:06;19.53;;;15.93;;
48205;SDS011;33995;48.202;16.260;2022-12-29T07:33:44;19.57;;;16.27;;
48205;SDS011;33995;48.202;16.260;2022-12-29T07:36:14;18.87;;;15.57;;
48205;SDS011;33995;48.202;16.260;2022-12-29T07:38:43;16.13;;;14.07;;
48205;SDS011;33995;48.202;16.260;2022-12-29T07:41:12;17.37;;;14.50;;
48205;SDS011;33995;48.202;16.260;2022-12-29T07:43:47;17.27;;;15.00;;
48205;SDS011;33995;48.202;16.260;2022-12-29T07:46:50;17.67;;;14.23;;
48205;SDS011;33995;48.202;16.260;2022-12-29T07:49:24;19.70;;;15.10;;
48205;SDS011;33995;48.202;16.260;2022-12-29T07:51:52;23.40;;;16.57;;
48205;SDS011;33995;48.202;16.260;2022-12-29T07:54:24;23.37;;;17.37;;
48205;SDS011;33995;48.202;16.260;2022-12-29T07:56:51;24.30;;;17.77;;
48205;SDS011;33995;48.202;16.260;2022-12-29T07:59:24;24.17;;;17.53;;
48205;SDS011;33995;48.202;16.260;2022-12-29T08:01:51;26.83;;;17.30;;
48205;SDS011;33995;48.202;16.260;2022-12-29T08:04:19;27.97;;;18.10;;
48205;SDS011;33995;48.202;16.260;2022-12-29T08:06:46;27.10;;;19.03;;
48205;SDS011;33995;48.202;16.260;2022-12-29T08:09:15;28.87;;;19.37;;
48205;SDS011;33995;48.202;16.260;2022-12-29T08:11:50;32.80;;;20.90;;
48205;SDS011;33995;48.202;16.260;2022-12-29T08:14:20;35.40;;;22.10;;
48205;SDS011;33995;48.202;16.260;2022-12-29T08:16:50;35.87;;;22.37;;
48205;SDS011;33995;48.202;16.260;2022-12-29T08:19:19;34.10;;;22.10;;
48205;SDS011;33995;48.202;16.260;2022-12-29T08:21:50;37.37;;;22.00;;
48205;SDS011;33995;48.202;16.260;2022-12-29T08:24:20;35.10;;;22.07;;
48205;SDS011;33995;48.202;16.260;2022-12-29T08:26:47;36.03;;;22.53;;
48205;SDS011;33995;48.202;16.260;2022-12-29T08:29:17;36.10;;;23.70;;
48205;SDS011;33995;48.202;16.260;2022-12-29T08:31:51;35.33;;;23.43;;
48205;SDS011;33995;48.202;16.260;2022-12-29T08:34:21;35.57;;;23.73;;
48205;SDS011;33995;48.202;16.260;2022-12-29T08:36:51;37.67;;;24.87;;
48205;SDS011;33995;48.202;16.260;2022-12-29T08:39:21;39.10;;;24.17;;
48205;SDS011;33995;48.202;16.260;2022-12-29T08:41:51;38.37;;;24.67;;
48205;SDS011;33995;48.202;16.260;2022-12-29T08:44:20;37.60;;;21.70;;
48205;SDS011;33995;48.202;16.260;2022-12-29T08:46:51;44.37;;;23.10;;
48205;SDS011;33995;48.202;16.260;2022-12-29T08:49:23;41.07;;;22.40;;
48205;SDS011;33995;48.202;16.260;2022-12-29T08:52:00;37.00;;;22.83;;
48205;SDS011;33995;48.202;16.260;2022-12-29T08:54:40;41.73;;;23.10;;
48205;SDS011;33995;48.202;16.260;2022-12-29T08:57:20;38.30;;;22.50;;
48205;SDS011;33995;48.202;16.260;2022-12-29T09:00:23;39.33;;;24.03;;
48205;SDS011;33995;48.202;16.260;2022-12-29T09:03:10;46.23;;;23.77;;
48205;SDS011;33995;48.202;16.260;2022-12-29T09:05:41;39.17;;;24.07;;
48205;SDS011;33995;48.202;16.260;2022-12-29T09:08:24;35.63;;;23.93;;
48205;SDS011;33995;48.202;16.260;2022-12-29T09:10:54;38.33;;;27.73;;
48205;SDS011;33995;48.202;16.260;2022-12-29T09:13:24;40.87;;;24.63;;
48205;SDS011;33995;48.202;16.260;2022-12-29T09:15:58;44.17;;;25.07;;
48205;SDS011;33995;48.202;16.260;2022-12-29T09:18:28;61.33;;;24.57;;
48205;SDS011;33995;48.202;16.260;2022-12-29T09:21:03;41.13;;;24.17;;
48205;SDS011;33995;48.202;16.260;2022-12-29T09:23:33;36.27;;;23.23;;
48205;SDS011;33995;48.202;16.260;2022-12-29T09:26:02;35.53;;;24.63;;
48205;SDS011;33995;48.202;16.260;2022-12-29T09:28:31;41.93;;;23.50;;
48205;SDS011;33995;48.202;16.260;2022-12-29T09:31:09;33.70;;;23.57;;
48205;SDS011;33995;48.202;16.260;2022-12-29T09:33:40;34.13;;;22.20;;
48205;SDS011;33995;48.202;16.260;2022-12-29T09:36:12;38.13;;;24.13;;
48205;SDS011;33995;48.202;16.260;2022-12-29T09:38:40;37.23;;;25.10;;
48205;SDS011;33995;48.202;16.260;2022-12-29T09:41:16;37.27;;;24.43;;
48205;SDS011;33995;48.202;16.260;2022-12-29T09:44:05;34.53;;;23.00;;
48205;SDS011;33995;48.202;16.260;2022-12-29T09:46:52;36.47;;;23.33;;
48205;SDS011;33995;48.202;16.260;2022-12-29T09:49:35;37.37;;;24.13;;
48205;SDS011;33995;48.202;16.260;2022-12-29T09:52:25;37.30;;;24.47;;
48205;SDS011;33995;48.202;16.260;2022-12-29T09:55:21;34.10;;;23.23;;
48205;SDS011;33995;48.202;16.260;2022-12-29T09:58:02;33.80;;;24.03;;
48205;SDS011;33995;48.202;16.260;2022-12-29T10:03:50;30.77;;;20.73;;
48205;SDS011;33995;48.202;16.260;2022-12-29T10:13:13;28.93;;;21.07;;
48205;SDS011;33995;48.202;16.260;2022-12-29T10:25:02;28.87;;;21.17;;
48205;SDS011;33995;48.202;16.260;2022-12-29T10:27:36;28.30;;;21.17;;
48205;SDS011;33995;48.202;16.260;2022-12-29T10:30:10;29.50;;;20.77;;
48205;SDS011;33995;48.202;16.260;2022-12-29T10:32:49;28.97;;;20.77;;
48205;SDS011;33995;48.202;16.260;2022-12-29T10:35:39;29.70;;;21.57;;
48205;SDS011;33995;48.202;16.260;2022-12-29T10:41:41;33.43;;;22.53;;
48205;SDS011;33995;48.202;16.260;2022-12-29T10:44:15;30.27;;;21.53;;
48205;SDS011;33995;48.202;16.260;2022-12-29T10:46:54;34.87;;;22.40;;
48205;SDS011;33995;48.202;16.260;2022-12-29T10:49:42;35.10;;;22.63;;
48205;SDS011;33995;48.202;16.260;2022-12-29T10:52:16;34.27;;;23.57;;
48205;SDS011;33995;48.202;16.260;2022-12-29T10:55:10;33.00;;;22.83;;
48205;SDS011;33995;48.202;16.260;2022-12-29T10:57:44;34.23;;;22.97;;
48205;SDS011;33995;48.202;16.260;2022-12-29T11:00:18;34.23;;;23.50;;
48205;SDS011;33995;48.202;16.260;2022-12-29T11:08:26;33.43;;;23.47;;
48205;SDS011;33995;48.202;16.260;2022-12-29T11:11:03;35.67;;;23.80;;
48205;SDS011;33995;48.202;16.260;2022-12-29T11:13:58;37.77;;;24.10;;
48205;SDS011;33995;48.202;16.260;2022-12-29T11:16:31;41.97;;;24.73;;
48205;SDS011;33995;48.202;16.260;2022-12-29T11:19:03;42.43;;;27.10;;
48205;SDS011;33995;48.202;16.260;2022-12-29T11:21:35;49.30;;;26.73;;
48205;SDS011;33995;48.202;16.260;2022-12-29T11:24:27;39.20;;;26.23;;
48205;SDS011;33995;48.202;16.260;2022-12-29T11:27:19;42.73;;;26.30;;
48205;SDS011;33995;48.202;16.260;2022-12-29T11:29:53;45.80;;;27.60;;
48205;SDS011;33995;48.202;16.260;2022-12-29T11:32:24;42.60;;;26.93;;
48205;SDS011;33995;48.202;16.260;2022-12-29T11:34:58;40.50;;;25.57;;
48205;SDS011;33995;48.202;16.260;2022-12-29T11:40:15;47.13;;;28.03;;
48205;SDS011;33995;48.202;16.260;2022-12-29T11:42:51;41.27;;;26.93;;
48205;SDS011;33995;48.202;16.260;2022-12-29T11:45:26;40.97;;;26.27;;
48205;SDS011;33995;48.202;16.260;2022-12-29T11:48:15;42.27;;;26.33;;
48205;SDS011;33995;48.202;16.260;2022-12-29T11:50:51;39.47;;;25.00;;
48205;SDS011;33995;48.202;16.260;2022-12-29T11:53:31;38.37;;;25.67;;
48205;SDS011;33995;48.202;16.260;2022-12-29T11:56:22;41.83;;;26.33;;
48205;SDS011;33995;48.202;16.260;2022-12-29T12:01:56;42.90;;;26.37;;
48205;SDS011;33995;48.202;16.260;2022-12-29T12:04:26;42.67;;;27.13;;
48205;SDS011;33995;48.202;16.260;2022-12-29T12:06:59;40.27;;;25.33;;
48205;SDS011;33995;48.202;16.260;2022-12-29T12:10:00;46.03;;;26.70;;
48205;SDS011;33995;48.202;16.260;2022-12-29T12:15:40;46.00;;;26.37;;
48205;SDS011;33995;48.202;16.260;2022-12-29T12:18:39;45.67;;;27.13;;
48205;SDS011;33995;48.202;16.260;2022-12-29T12:21:55;42.00;;;26.60;;
48205;SDS011;33995;48.202;16.260;2022-12-29T12:32:13;46.60;;;28.50;;
48205;SDS011;33995;48.202;16.260;2022-12-29T12:35:02;45.70;;;28.67;;
48205;SDS011;33995;48.202;16.260;2022-12-29T12:37:52;42.30;;;26.50;;
48205;SDS011;33995;48.202;16.260;2022-12-29T12:40:55;44.00;;;26.20;;
48205;SDS011;33995;48.202;16.260;2022-12-29T12:46:52;42.40;;;27.50;;
48205;SDS011;33995;48.202;16.260;2022-12-29T12:49:34;44.20;;;28.57;;
48205;SDS011;33995;48.202;16.260;2022-12-29T12:52:49;43.77;;;28.33;;
48205;SDS011;33995;48.202;16.260;2022-12-29T13:04:02;37.87;;;25.93;;
48205;SDS011;33995;48.202;16.260;2022-12-29T13:25:50;39.83;;;26.40;;
48205;SDS011;33995;48.202;16.260;2022-12-29T13:31:31;36.37;;;24.77;;
48205;SDS011;33995;48.202;16.260;2022-12-29T13:37:11;37.33;;;25.03;;
48205;SDS011;33995;48.202;16.260;2022-12-29T13:39:45;36.23;;;25.00;;
48205;SDS011;33995;48.202;16.260;2022-12-29T13:42:26;35.83;;;24.13;;
48205;SDS011;33995;48.202;16.260;2022-12-29T13:44:57;34.53;;;23.97;;
48205;SDS011;33995;48.202;16.260;2022-12-29T13:47:36;36.33;;;25.03;;
48205;SDS011;33995;48.202;16.260;2022-12-29T13:50:19;34.27;;;25.00;;
48205;SDS011;33995;48.202;16.260;2022-12-29T13:59:51;35.93;;;24.27;;
48205;SDS011;33995;48.202;16.260;2022-12-29T14:05:42;34.47;;;24.80;;
48205;SDS011;33995;48.202;16.260;2022-12-29T14:08:34;32.77;;;24.27;;
48205;SDS011;33995;48.202;16.260;2022-12-29T14:11:09;32.47;;;23.43;;
48205;SDS011;33995;48.202;16.260;2022-12-29T14:13:38;35.63;;;25.70;;
48205;SDS011;33995;48.202;16.260;2022-12-29T14:16:10;35.53;;;25.40;;
48205;SDS011;33995;48.202;16.260;2022-12-29T14:19:11;33.93;;;24.37;;
48205;SDS011;33995;48.202;16.260;2022-12-29T14:21:54;31.67;;;23.97;;
48205;SDS011;33995;48.202;16.260;2022-12-29T14:24:45;32.83;;;24.57;;
48205;SDS011;33995;48.202;16.260;2022-12-29T14:34:58;34.77;;;24.83;;
48205;SDS011;33995;48.202;16.260;2022-12-29T14:37:31;35.10;;;25.67;;
48205;SDS011;33995;48.202;16.260;2022-12-29T14:43:18;38.37;;;27.07;;
48205;SDS011;33995;48.202;16.260;2022-12-29T14:45:55;35.83;;;25.90;;
48205;SDS011;33995;48.202;16.260;2022-12-29T14:48:44;34.97;;;24.80;;
48205;SDS011;33995;48.202;16.260;2022-12-29T14:51:28;37.17;;;26.73;;
48205;SDS011;33995;48.202;16.260;2022-12-29T14:53:59;38.00;;;26.03;;
48205;SDS011;33995;48.202;16.260;2022-12-29T14:56:41;34.67;;;25.43;;
48205;SDS011;33995;48.202;16.260;2022-12-29T14:59:17;32.97;;;24.87;;
48205;SDS011;33995;48.202;16.260;2022-12-29T15:01:52;35.63;;;26.07;;
48205;SDS011;33995;48.202;16.260;2022-12-29T15:04:23;35.87;;;25.93;;
48205;SDS011;33995;48.202;16.260;2022-12-29T15:07:00;35.97;;;26.67;;
48205;SDS011;33995;48.202;16.260;2022-12-29T15:09:51;38.13;;;26.93;;
48205;SDS011;33995;48.202;16.260;2022-12-29T15:12:36;37.83;;;27.50;;
48205;SDS011;33995;48.202;16.260;2022-12-29T15:15:22;39.07;;;26.73;;
48205;SDS011;33995;48.202;16.260;2022-12-29T15:20:59;35.57;;;25.90;;
48205;SDS011;33995;48.202;16.260;2022-12-29T15:23:29;34.37;;;25.93;;
48205;SDS011;33995;48.202;16.260;2022-12-29T15:26:05;34.90;;;26.43;;
48205;SDS011;33995;48.202;16.260;2022-12-29T15:28:44;36.53;;;26.90;;
48205;SDS011;33995;48.202;16.260;2022-12-29T15:31:14;35.43;;;26.53;;
48205;SDS011;33995;48.202;16.260;2022-12-29T15:34:11;36.50;;;26.67;;
48205;SDS011;33995;48.202;16.260;2022-12-29T15:37:07;38.90;;;27.97;;
48205;SDS011;33995;48.202;16.260;2022-12-29T15:39:37;39.80;;;27.77;;
48205;SDS011;33995;48.202;16.260;2022-12-29T15:45:17;41.90;;;28.30;;
48205;SDS011;33995;48.202;16.260;2022-12-29T15:47:48;41.37;;;28.07;;
48205;SDS011;33995;48.202;16.260;2022-12-29T15:50:34;38.67;;;28.13;;
48205;SDS011;33995;48.202;16.260;2022-12-29T15:53:26;40.03;;;28.13;;
48205;SDS011;33995;48.202;16.260;2022-12-29T15:55:57;36.90;;;26.77;;
48205;SDS011;33995;48.202;16.260;2022-12-29T15:58:30;38.43;;;27.67;;
48205;SDS011;33995;48.202;16.260;2022-12-29T16:01:16;39.73;;;28.30;;
48205;SDS011;33995;48.202;16.260;2022-12-29T16:03:53;41.23;;;29.53;;
48205;SDS011;33995;48.202;16.260;2022-12-29T16:06:29;40.50;;;29.20;;
48205;SDS011;33995;48.202;16.260;2022-12-29T16:09:10;43.13;;;29.30;;
48205;SDS011;33995;48.202;16.260;2022-12-29T16:11:49;40.53;;;29.47;;
48205;SDS011;33995;48.202;16.260;2022-12-29T16:14:40;40.83;;;30.03;;
48205;SDS011;33995;48.202;16.260;2022-12-29T16:17:18;40.97;;;29.53;;
48205;SDS011;33995;48.202;16.260;2022-12-29T16:20:14;42.90;;;29.47;;
48205;SDS011;33995;48.202;16.260;2022-12-29T16:22:48;41.13;;;29.53;;
48205;SDS011;33995;48.202;16.260;2022-12-29T16:25:31;42.43;;;30.43;;
48205;SDS011;33995;48.202;16.260;2022-12-29T16:28:11;41.33;;;30.07;;
48205;SDS011;33995;48.202;16.260;2022-12-29T16:31:02;39.67;;;28.07;;
48205;SDS011;33995;48.202;16.260;2022-12-29T16:33:44;41.17;;;29.70;;
48205;SDS011;33995;48.202;16.260;2022-12-29T16:36:29;40.90;;;29.13;;
48205;SDS011;33995;48.202;16.260;2022-12-29T16:41:54;38.70;;;27.53;;
48205;SDS011;33995;48.202;16.260;2022-12-29T16:44:29;33.00;;;24.77;;
48205;SDS011;33995;48.202;16.260;2022-12-29T16:47:05;33.03;;;25.23;;
48205;SDS011;33995;48.202;16.260;2022-12-29T16:49:53;33.63;;;24.67;;
48205;SDS011;33995;48.202;16.260;2022-12-29T16:52:37;31.13;;;24.57;;
48205;SDS011;33995;48.202;16.260;2022-12-29T16:55:14;32.37;;;24.47;;
48205;SDS011;33995;48.202;16.260;2022-12-29T16:57:45;32.87;;;25.47;;
48205;SDS011;33995;48.202;16.260;2022-12-29T17:00:22;32.70;;;24.83;;
48205;SDS011;33995;48.202;16.260;2022-12-29T17:02:56;33.73;;;25.90;;
48205;SDS011;33995;48.202;16.260;2022-12-29T17:05:27;36.20;;;26.67;;
48205;SDS011;33995;48.202;16.260;2022-12-29T17:07:55;32.80;;;25.53;;
48205;SDS011;33995;48.202;16.260;2022-12-29T17:10:27;33.07;;;25.40;;
48205;SDS011;33995;48.202;16.260;2022-12-29T17:13:17;32.07;;;25.67;;
48205;SDS011;33995;48.202;16.260;2022-12-29T17:15:48;33.63;;;25.43;;
48205;SDS011;33995;48.202;16.260;2022-12-29T17:18:18;33.03;;;24.87;;
48205;SDS011;33995;48.202;16.260;2022-12-29T17:20:47;33.20;;;25.13;;
48205;SDS011;33995;48.202;16.260;2022-12-29T17:23:15;35.63;;;26.53;;
48205;SDS011;33995;48.202;16.260;2022-12-29T17:25:51;35.73;;;26.77;;
48205;SDS011;33995;48.202;16.260;2022-12-29T17:28:23;38.27;;;26.90;;
48205;SDS011;33995;48.202;16.260;2022-12-29T17:31:05;32.83;;;25.30;;
48205;SDS011;33995;48.202;16.260;2022-12-29T17:33:36;37.10;;;27.40;;
48205;SDS011;33995;48.202;16.260;2022-12-29T17:36:09;35.07;;;26.87;;
48205;SDS011;33995;48.202;16.260;2022-12-29T17:38:42;32.93;;;26.57;;